KJSL/JSL METAR and TAF weather

Enter ICAO airport designator
Station Type Date Time Source
KJSL METAR 2021/08/04 20:00 UTC NOAA

KJSL 042000Z AUTO 26011KT 10SM FEW024 32/24 A2998 RMK A01


Station Type Date Time Source
KJSL Decoded METAR 2021/08/04 20:00 UTC NOAA

Station name not available
Aug 04, 2021 - 04:00 PM EDT / 2021.08.04 2000 UTC
Wind: from the W (260 degrees) at 13 MPH (11 KT):0
Visibility: 10 mile(s):0
Sky conditions: mostly clear
Temperature: 89 F (32 C)
Heat index: 98.4 F (36.9 C):1
Dew Point: 75 F (24 C)
Relative Humidity: 62%
Pressure (altimeter): 29.98 in. Hg (1015 hPa)
ob: KJSL 042000Z AUTO 26011KT 10SM FEW024 32/24 A2998 RMK A01
cycle: 20

Station Type Date Time Source
KJSL TAF UTC NOAA

Error!

Example: see airport list